Dodgeville, Wisconsin
Current Conditions -  °F | °C
As of 5:15 AM on Friday 28 Nov 2014 (Local Time) from KMRJ Reporting Station
Overcast Overcast  
Wind Chill:   Ceiling: 7000
Heat Index: 18°   Visibility: 10mi
Dew Point: 10°   Wind: 10mph
Humidity: 73%   Direction: 130°SE
Pressure: 30.17"   Gusts: NA
Location:  42.96°N, 90.13°W
Report Text: KMRJ 281115Z AUTO 13009KT 10SM SCT050 BKN070 OVC085 M08/M12 A3017 RMK AO2
Loading
Personal Weather Stations






























Interactive Weather Map New forecast layout! Learn more

10-Day Weather Forecast

Advertisements
Track Severe Weather on mobile